sensor_id;sensor_type;location;lat;lon;timestamp;P1;durP1;ratioP1;P2;durP2;ratioP2
55082;SDS011;40978;52.850;6.506;2024-02-26T00:00:34;4.20;;;1.70;;
55082;SDS011;40978;52.850;6.506;2024-02-26T00:03:00;2.50;;;1.40;;
55082;SDS011;40978;52.850;6.506;2024-02-26T00:05:26;2.92;;;1.63;;
55082;SDS011;40978;52.850;6.506;2024-02-26T00:07:52;4.13;;;1.85;;
55082;SDS011;40978;52.850;6.506;2024-02-26T00:10:17;4.05;;;1.52;;
55082;SDS011;40978;52.850;6.506;2024-02-26T00:12:43;2.28;;;1.75;;
55082;SDS011;40978;52.850;6.506;2024-02-26T00:15:09;2.15;;;1.50;;
55082;SDS011;40978;52.850;6.506;2024-02-26T00:17:35;3.72;;;1.67;;
55082;SDS011;40978;52.850;6.506;2024-02-26T00:20:02;2.67;;;1.98;;
55082;SDS011;40978;52.850;6.506;2024-02-26T00:22:30;1.83;;;1.23;;
55082;SDS011;40978;52.850;6.506;2024-02-26T00:24:56;2.40;;;1.15;;
55082;SDS011;40978;52.850;6.506;2024-02-26T00:27:22;1.85;;;1.13;;
55082;SDS011;40978;52.850;6.506;2024-02-26T00:29:47;2.85;;;1.88;;
55082;SDS011;40978;52.850;6.506;2024-02-26T00:32:13;1.98;;;1.45;;
55082;SDS011;40978;52.850;6.506;2024-02-26T00:34:39;1.88;;;1.42;;
55082;SDS011;40978;52.850;6.506;2024-02-26T00:37:05;5.05;;;1.95;;
55082;SDS011;40978;52.850;6.506;2024-02-26T00:39:31;2.78;;;1.27;;
55082;SDS011;40978;52.850;6.506;2024-02-26T00:41:56;2.08;;;1.60;;
55082;SDS011;40978;52.850;6.506;2024-02-26T00:44:22;3.10;;;1.95;;
55082;SDS011;40978;52.850;6.506;2024-02-26T00:46:48;2.50;;;1.48;;
55082;SDS011;40978;52.850;6.506;2024-02-26T00:49:13;2.83;;;1.27;;
55082;SDS011;40978;52.850;6.506;2024-02-26T00:51:39;2.65;;;1.98;;
55082;SDS011;40978;52.850;6.506;2024-02-26T00:54:05;3.45;;;1.77;;
55082;SDS011;40978;52.850;6.506;2024-02-26T00:56:30;1.63;;;1.33;;
55082;SDS011;40978;52.850;6.506;2024-02-26T00:58:56;2.85;;;2.33;;
55082;SDS011;40978;52.850;6.506;2024-02-26T01:01:22;2.88;;;2.25;;
55082;SDS011;40978;52.850;6.506;2024-02-26T01:03:47;6.75;;;2.58;;
55082;SDS011;40978;52.850;6.506;2024-02-26T01:06:13;4.80;;;2.13;;
55082;SDS011;40978;52.850;6.506;2024-02-26T01:08:39;3.90;;;1.88;;
55082;SDS011;40978;52.850;6.506;2024-02-26T01:11:04;2.40;;;1.42;;
55082;SDS011;40978;52.850;6.506;2024-02-26T01:13:30;3.80;;;1.83;;
55082;SDS011;40978;52.850;6.506;2024-02-26T01:15:56;4.32;;;2.42;;
55082;SDS011;40978;52.850;6.506;2024-02-26T01:18:22;1.88;;;1.45;;
55082;SDS011;40978;52.850;6.506;2024-02-26T01:20:48;2.60;;;1.90;;
55082;SDS011;40978;52.850;6.506;2024-02-26T01:23:14;3.08;;;1.95;;
55082;SDS011;40978;52.850;6.506;2024-02-26T01:25:39;4.07;;;2.00;;
55082;SDS011;40978;52.850;6.506;2024-02-26T01:28:05;4.10;;;2.78;;
55082;SDS011;40978;52.850;6.506;2024-02-26T01:30:31;2.80;;;2.35;;
55082;SDS011;40978;52.850;6.506;2024-02-26T01:32:57;3.58;;;2.38;;
55082;SDS011;40978;52.850;6.506;2024-02-26T01:35:22;2.83;;;2.50;;
55082;SDS011;40978;52.850;6.506;2024-02-26T01:37:48;2.67;;;1.67;;
55082;SDS011;40978;52.850;6.506;2024-02-26T01:40:14;5.03;;;2.53;;
55082;SDS011;40978;52.850;6.506;2024-02-26T01:42:45;4.25;;;2.47;;
55082;SDS011;40978;52.850;6.506;2024-02-26T01:45:12;2.28;;;1.67;;
55082;SDS011;40978;52.850;6.506;2024-02-26T01:47:47;3.53;;;1.98;;
55082;SDS011;40978;52.850;6.506;2024-02-26T01:50:16;2.72;;;1.95;;
55082;SDS011;40978;52.850;6.506;2024-02-26T01:52:43;2.67;;;1.85;;
55082;SDS011;40978;52.850;6.506;2024-02-26T01:55:13;1.88;;;1.35;;
55082;SDS011;40978;52.850;6.506;2024-02-26T01:57:42;5.13;;;2.15;;
55082;SDS011;40978;52.850;6.506;2024-02-26T02:00:09;3.95;;;2.45;;
55082;SDS011;40978;52.850;6.506;2024-02-26T02:02:35;2.80;;;1.75;;
55082;SDS011;40978;52.850;6.506;2024-02-26T02:05:01;3.55;;;1.50;;
55082;SDS011;40978;52.850;6.506;2024-02-26T02:07:28;4.18;;;2.30;;
55082;SDS011;40978;52.850;6.506;2024-02-26T02:09:54;3.55;;;2.42;;
55082;SDS011;40978;52.850;6.506;2024-02-26T02:12:20;4.53;;;3.17;;
55082;SDS011;40978;52.850;6.506;2024-02-26T02:14:47;4.43;;;2.65;;
55082;SDS011;40978;52.850;6.506;2024-02-26T02:17:12;4.97;;;2.35;;
55082;SDS011;40978;52.850;6.506;2024-02-26T02:19:38;3.90;;;2.20;;
55082;SDS011;40978;52.850;6.506;2024-02-26T02:22:04;6.30;;;2.75;;
55082;SDS011;40978;52.850;6.506;2024-02-26T02:24:30;3.83;;;2.22;;
55082;SDS011;40978;52.850;6.506;2024-02-26T02:26:55;8.25;;;3.03;;
55082;SDS011;40978;52.850;6.506;2024-02-26T02:29:21;4.57;;;2.90;;
55082;SDS011;40978;52.850;6.506;2024-02-26T02:31:47;8.35;;;3.83;;
55082;SDS011;40978;52.850;6.506;2024-02-26T02:34:13;3.42;;;1.70;;
55082;SDS011;40978;52.850;6.506;2024-02-26T02:36:52;5.43;;;2.35;;
55082;SDS011;40978;52.850;6.506;2024-02-26T02:39:18;4.53;;;2.05;;
55082;SDS011;40978;52.850;6.506;2024-02-26T02:41:44;6.55;;;3.58;;
55082;SDS011;40978;52.850;6.506;2024-02-26T02:44:10;3.10;;;2.38;;
55082;SDS011;40978;52.850;6.506;2024-02-26T02:46:36;6.07;;;3.30;;
55082;SDS011;40978;52.850;6.506;2024-02-26T02:49:01;4.20;;;3.15;;
55082;SDS011;40978;52.850;6.506;2024-02-26T02:51:27;4.53;;;3.38;;
55082;SDS011;40978;52.850;6.506;2024-02-26T02:53:53;4.90;;;2.70;;
55082;SDS011;40978;52.850;6.506;2024-02-26T02:56:18;5.78;;;3.58;;
55082;SDS011;40978;52.850;6.506;2024-02-26T02:58:44;10.40;;;4.45;;
55082;SDS011;40978;52.850;6.506;2024-02-26T03:01:10;6.25;;;2.88;;
55082;SDS011;40978;52.850;6.506;2024-02-26T03:03:36;4.40;;;2.15;;
55082;SDS011;40978;52.850;6.506;2024-02-26T03:06:02;6.95;;;3.90;;
55082;SDS011;40978;52.850;6.506;2024-02-26T03:08:28;6.90;;;3.65;;
55082;SDS011;40978;52.850;6.506;2024-02-26T03:10:54;5.00;;;3.35;;
55082;SDS011;40978;52.850;6.506;2024-02-26T03:13:20;6.18;;;3.90;;
55082;SDS011;40978;52.850;6.506;2024-02-26T03:15:46;6.10;;;3.88;;
55082;SDS011;40978;52.850;6.506;2024-02-26T03:18:11;6.07;;;3.97;;
55082;SDS011;40978;52.850;6.506;2024-02-26T03:20:38;9.70;;;4.43;;
55082;SDS011;40978;52.850;6.506;2024-02-26T03:23:04;7.18;;;4.25;;
55082;SDS011;40978;52.850;6.506;2024-02-26T03:25:29;7.80;;;4.25;;
55082;SDS011;40978;52.850;6.506;2024-02-26T03:27:55;6.03;;;3.92;;
55082;SDS011;40978;52.850;6.506;2024-02-26T03:30:21;7.72;;;4.82;;
55082;SDS011;40978;52.850;6.506;2024-02-26T03:32:46;5.00;;;3.03;;
55082;SDS011;40978;52.850;6.506;2024-02-26T03:35:12;8.77;;;4.57;;
55082;SDS011;40978;52.850;6.506;2024-02-26T03:37:38;9.48;;;4.88;;
55082;SDS011;40978;52.850;6.506;2024-02-26T03:40:04;7.30;;;3.80;;
55082;SDS011;40978;52.850;6.506;2024-02-26T03:42:31;2.17;;;1.60;;
55082;SDS011;40978;52.850;6.506;2024-02-26T03:44:56;7.10;;;4.68;;
55082;SDS011;40978;52.850;6.506;2024-02-26T03:47:22;4.65;;;2.88;;
55082;SDS011;40978;52.850;6.506;2024-02-26T03:49:48;7.18;;;4.50;;
55082;SDS011;40978;52.850;6.506;2024-02-26T03:52:14;5.50;;;3.88;;
55082;SDS011;40978;52.850;6.506;2024-02-26T03:54:40;5.20;;;3.55;;
55082;SDS011;40978;52.850;6.506;2024-02-26T03:57:05;8.48;;;5.38;;
55082;SDS011;40978;52.850;6.506;2024-02-26T03:59:31;5.40;;;2.33;;
55082;SDS011;40978;52.850;6.506;2024-02-26T04:01:57;7.95;;;4.70;;
55082;SDS011;40978;52.850;6.506;2024-02-26T04:04:22;6.93;;;3.83;;
55082;SDS011;40978;52.850;6.506;2024-02-26T04:06:48;4.70;;;2.80;;
55082;SDS011;40978;52.850;6.506;2024-02-26T04:09:14;8.50;;;4.43;;
55082;SDS011;40978;52.850;6.506;2024-02-26T04:11:40;8.32;;;3.47;;
55082;SDS011;40978;52.850;6.506;2024-02-26T04:14:06;6.45;;;3.83;;
55082;SDS011;40978;52.850;6.506;2024-02-26T04:16:34;3.67;;;2.05;;
55082;SDS011;40978;52.850;6.506;2024-02-26T04:19:00;4.40;;;2.90;;
55082;SDS011;40978;52.850;6.506;2024-02-26T04:21:26;5.55;;;2.58;;
55082;SDS011;40978;52.850;6.506;2024-02-26T04:23:52;8.90;;;4.53;;
55082;SDS011;40978;52.850;6.506;2024-02-26T04:26:20;7.93;;;4.07;;
55082;SDS011;40978;52.850;6.506;2024-02-26T04:28:46;7.20;;;3.35;;
55082;SDS011;40978;52.850;6.506;2024-02-26T04:31:12;11.05;;;4.18;;
55082;SDS011;40978;52.850;6.506;2024-02-26T04:33:38;3.50;;;2.03;;
55082;SDS011;40978;52.850;6.506;2024-02-26T04:36:04;6.00;;;2.83;;
55082;SDS011;40978;52.850;6.506;2024-02-26T04:38:30;7.28;;;4.00;;
55082;SDS011;40978;52.850;6.506;2024-02-26T04:40:55;4.35;;;2.75;;
55082;SDS011;40978;52.850;6.506;2024-02-26T04:43:21;4.20;;;2.97;;
55082;SDS011;40978;52.850;6.506;2024-02-26T04:45:47;4.80;;;3.15;;
55082;SDS011;40978;52.850;6.506;2024-02-26T04:48:13;4.32;;;3.20;;
55082;SDS011;40978;52.850;6.506;2024-02-26T04:50:39;3.08;;;2.22;;
55082;SDS011;40978;52.850;6.506;2024-02-26T04:53:04;4.15;;;2.70;;
55082;SDS011;40978;52.850;6.506;2024-02-26T04:55:30;3.97;;;2.80;;
55082;SDS011;40978;52.850;6.506;2024-02-26T04:57:56;3.40;;;1.98;;
55082;SDS011;40978;52.850;6.506;2024-02-26T05:00:21;3.80;;;2.28;;
55082;SDS011;40978;52.850;6.506;2024-02-26T05:02:47;3.03;;;2.15;;
55082;SDS011;40978;52.850;6.506;2024-02-26T05:05:13;3.05;;;1.70;;
55082;SDS011;40978;52.850;6.506;2024-02-26T05:07:40;2.95;;;1.50;;
55082;SDS011;40978;52.850;6.506;2024-02-26T05:10:07;2.67;;;2.30;;
55082;SDS011;40978;52.850;6.506;2024-02-26T05:12:33;2.50;;;1.55;;
55082;SDS011;40978;52.850;6.506;2024-02-26T05:15:01;1.98;;;1.48;;
55082;SDS011;40978;52.850;6.506;2024-02-26T05:17:27;1.65;;;1.20;;
55082;SDS011;40978;52.850;6.506;2024-02-26T05:19:53;2.20;;;1.38;;
55082;SDS011;40978;52.850;6.506;2024-02-26T05:22:19;2.13;;;1.85;;
55082;SDS011;40978;52.850;6.506;2024-02-26T05:24:45;1.15;;;0.88;;
55082;SDS011;40978;52.850;6.506;2024-02-26T05:27:11;2.03;;;1.27;;
55082;SDS011;40978;52.850;6.506;2024-02-26T05:29:37;1.73;;;1.13;;
55082;SDS011;40978;52.850;6.506;2024-02-26T05:32:03;1.17;;;0.98;;
55082;SDS011;40978;52.850;6.506;2024-02-26T05:34:30;1.13;;;0.85;;
55082;SDS011;40978;52.850;6.506;2024-02-26T05:36:56;1.75;;;1.05;;
55082;SDS011;40978;52.850;6.506;2024-02-26T05:39:22;1.08;;;0.93;;
55082;SDS011;40978;52.850;6.506;2024-02-26T05:41:48;5.22;;;1.65;;
55082;SDS011;40978;52.850;6.506;2024-02-26T05:44:14;2.97;;;2.45;;
55082;SDS011;40978;52.850;6.506;2024-02-26T05:46:41;3.28;;;1.13;;
55082;SDS011;40978;52.850;6.506;2024-02-26T05:49:07;1.95;;;1.02;;
55082;SDS011;40978;52.850;6.506;2024-02-26T05:51:33;2.13;;;1.08;;
55082;SDS011;40978;52.850;6.506;2024-02-26T05:53:58;1.77;;;1.00;;
55082;SDS011;40978;52.850;6.506;2024-02-26T05:56:24;1.45;;;1.17;;
55082;SDS011;40978;52.850;6.506;2024-02-26T05:58:50;7.43;;;0.75;;
55082;SDS011;40978;52.850;6.506;2024-02-26T06:01:16;1.63;;;1.17;;
55082;SDS011;40978;52.850;6.506;2024-02-26T06:03:43;1.00;;;0.70;;
55082;SDS011;40978;52.850;6.506;2024-02-26T06:06:10;1.80;;;1.13;;
55082;SDS011;40978;52.850;6.506;2024-02-26T06:08:36;1.45;;;0.77;;
55082;SDS011;40978;52.850;6.506;2024-02-26T06:11:08;1.60;;;0.95;;
55082;SDS011;40978;52.850;6.506;2024-02-26T06:13:34;1.35;;;1.25;;
55082;SDS011;40978;52.850;6.506;2024-02-26T06:16:00;2.05;;;1.08;;
55082;SDS011;40978;52.850;6.506;2024-02-26T06:18:27;1.05;;;0.90;;
55082;SDS011;40978;52.850;6.506;2024-02-26T06:20:52;2.25;;;1.08;;
55082;SDS011;40978;52.850;6.506;2024-02-26T06:23:18;2.05;;;1.05;;
55082;SDS011;40978;52.850;6.506;2024-02-26T06:25:44;2.47;;;1.20;;
55082;SDS011;40978;52.850;6.506;2024-02-26T06:28:09;1.25;;;0.85;;
55082;SDS011;40978;52.850;6.506;2024-02-26T06:30:35;1.50;;;0.98;;
55082;SDS011;40978;52.850;6.506;2024-02-26T06:33:01;1.13;;;0.88;;
55082;SDS011;40978;52.850;6.506;2024-02-26T06:35:28;1.58;;;0.88;;
55082;SDS011;40978;52.850;6.506;2024-02-26T06:37:53;2.40;;;1.25;;
55082;SDS011;40978;52.850;6.506;2024-02-26T06:40:19;1.40;;;0.98;;
55082;SDS011;40978;52.850;6.506;2024-02-26T06:42:45;1.15;;;0.73;;
55082;SDS011;40978;52.850;6.506;2024-02-26T06:45:11;1.85;;;0.75;;
55082;SDS011;40978;52.850;6.506;2024-02-26T06:47:37;4.00;;;0.82;;
55082;SDS011;40978;52.850;6.506;2024-02-26T06:50:02;0.52;;;0.38;;
55082;SDS011;40978;52.850;6.506;2024-02-26T06:52:28;0.93;;;0.63;;
55082;SDS011;40978;52.850;6.506;2024-02-26T06:54:54;1.15;;;0.75;;
55082;SDS011;40978;52.850;6.506;2024-02-26T06:57:20;1.35;;;0.47;;
55082;SDS011;40978;52.850;6.506;2024-02-26T06:59:46;1.85;;;0.88;;
55082;SDS011;40978;52.850;6.506;2024-02-26T07:02:12;1.27;;;0.57;;
55082;SDS011;40978;52.850;6.506;2024-02-26T07:04:39;2.00;;;1.25;;
55082;SDS011;40978;52.850;6.506;2024-02-26T07:07:05;0.65;;;0.32;;
55082;SDS011;40978;52.850;6.506;2024-02-26T07:09:32;0.73;;;0.60;;
55082;SDS011;40978;52.850;6.506;2024-02-26T07:11:58;0.52;;;0.40;;
55082;SDS011;40978;52.850;6.506;2024-02-26T07:14:23;2.08;;;0.73;;
55082;SDS011;40978;52.850;6.506;2024-02-26T07:16:50;1.23;;;0.68;;
55082;SDS011;40978;52.850;6.506;2024-02-26T07:19:16;2.85;;;1.00;;
55082;SDS011;40978;52.850;6.506;2024-02-26T07:21:41;1.25;;;0.77;;
55082;SDS011;40978;52.850;6.506;2024-02-26T07:24:08;0.98;;;0.52;;
55082;SDS011;40978;52.850;6.506;2024-02-26T07:26:34;0.65;;;0.52;;
55082;SDS011;40978;52.850;6.506;2024-02-26T07:28:59;1.33;;;0.55;;
55082;SDS011;40978;52.850;6.506;2024-02-26T07:31:26;0.98;;;0.50;;
55082;SDS011;40978;52.850;6.506;2024-02-26T07:33:51;0.57;;;0.35;;
55082;SDS011;40978;52.850;6.506;2024-02-26T07:36:17;0.60;;;0.43;;
55082;SDS011;40978;52.850;6.506;2024-02-26T07:38:43;0.88;;;0.60;;
55082;SDS011;40978;52.850;6.506;2024-02-26T07:41:09;0.80;;;0.73;;
55082;SDS011;40978;52.850;6.506;2024-02-26T07:43:34;0.43;;;0.40;;
55082;SDS011;40978;52.850;6.506;2024-02-26T07:46:00;1.27;;;1.05;;
55082;SDS011;40978;52.850;6.506;2024-02-26T07:48:26;1.10;;;0.50;;
55082;SDS011;40978;52.850;6.506;2024-02-26T07:50:51;0.68;;;0.60;;
55082;SDS011;40978;52.850;6.506;2024-02-26T07:53:17;1.05;;;0.68;;
55082;SDS011;40978;52.850;6.506;2024-02-26T07:55:43;0.50;;;0.38;;
55082;SDS011;40978;52.850;6.506;2024-02-26T07:58:09;0.52;;;0.40;;
55082;SDS011;40978;52.850;6.506;2024-02-26T08:00:34;1.05;;;0.50;;
55082;SDS011;40978;52.850;6.506;2024-02-26T08:03:00;2.33;;;1.30;;
55082;SDS011;40978;52.850;6.506;2024-02-26T08:05:26;0.38;;;0.30;;
55082;SDS011;40978;52.850;6.506;2024-02-26T08:07:52;0.63;;;0.50;;
55082;SDS011;40978;52.850;6.506;2024-02-26T08:10:17;1.17;;;0.80;;
55082;SDS011;40978;52.850;6.506;2024-02-26T08:12:43;0.95;;;0.90;;
55082;SDS011;40978;52.850;6.506;2024-02-26T08:15:10;2.95;;;0.73;;
55082;SDS011;40978;52.850;6.506;2024-02-26T08:17:36;1.35;;;0.88;;
55082;SDS011;40978;52.850;6.506;2024-02-26T08:20:02;1.17;;;0.73;;
55082;SDS011;40978;52.850;6.506;2024-02-26T08:22:28;2.08;;;0.43;;
55082;SDS011;40978;52.850;6.506;2024-02-26T08:24:54;0.70;;;0.52;;
55082;SDS011;40978;52.850;6.506;2024-02-26T08:27:20;0.52;;;0.47;;
55082;SDS011;40978;52.850;6.506;2024-02-26T08:29:45;0.88;;;0.63;;
55082;SDS011;40978;52.850;6.506;2024-02-26T08:32:11;0.40;;;0.40;;
55082;SDS011;40978;52.850;6.506;2024-02-26T08:34:37;1.40;;;0.93;;
55082;SDS011;40978;52.850;6.506;2024-02-26T08:37:03;1.25;;;0.70;;
55082;SDS011;40978;52.850;6.506;2024-02-26T08:39:28;0.57;;;0.50;;
55082;SDS011;40978;52.850;6.506;2024-02-26T08:41:54;0.65;;;0.47;;
55082;SDS011;40978;52.850;6.506;2024-02-26T08:44:20;1.92;;;0.93;;
55082;SDS011;40978;52.850;6.506;2024-02-26T08:46:45;0.82;;;0.63;;
55082;SDS011;40978;52.850;6.506;2024-02-26T08:49:11;1.27;;;0.63;;
55082;SDS011;40978;52.850;6.506;2024-02-26T08:51:43;1.40;;;0.80;;
55082;SDS011;40978;52.850;6.506;2024-02-26T08:54:09;1.38;;;0.52;;
55082;SDS011;40978;52.850;6.506;2024-02-26T08:56:35;1.23;;;0.52;;
55082;SDS011;40978;52.850;6.506;2024-02-26T08:59:01;1.38;;;0.85;;
55082;SDS011;40978;52.850;6.506;2024-02-26T09:01:29;1.75;;;0.70;;
55082;SDS011;40978;52.850;6.506;2024-02-26T09:03:56;0.40;;;0.40;;
55082;SDS011;40978;52.850;6.506;2024-02-26T09:06:22;1.13;;;0.77;;
55082;SDS011;40978;52.850;6.506;2024-02-26T09:08:48;1.02;;;0.75;;
55082;SDS011;40978;52.850;6.506;2024-02-26T09:11:13;1.00;;;0.63;;
55082;SDS011;40978;52.850;6.506;2024-02-26T09:13:39;2.30;;;0.65;;
55082;SDS011;40978;52.850;6.506;2024-02-26T09:16:05;1.33;;;0.63;;
55082;SDS011;40978;52.850;6.506;2024-02-26T09:18:31;3.80;;;0.45;;
55082;SDS011;40978;52.850;6.506;2024-02-26T09:20:57;2.38;;;1.15;;
55082;SDS011;40978;52.850;6.506;2024-02-26T09:23:22;1.30;;;0.85;;
55082;SDS011;40978;52.850;6.506;2024-02-26T09:25:48;1.33;;;0.50;;
55082;SDS011;40978;52.850;6.506;2024-02-26T09:28:14;1.73;;;0.80;;
55082;SDS011;40978;52.850;6.506;2024-02-26T09:30:42;2.50;;;0.95;;
55082;SDS011;40978;52.850;6.506;2024-02-26T09:33:08;0.85;;;0.70;;
55082;SDS011;40978;52.850;6.506;2024-02-26T09:35:34;1.75;;;1.00;;
55082;SDS011;40978;52.850;6.506;2024-02-26T09:38:00;1.05;;;0.30;;
55082;SDS011;40978;52.850;6.506;2024-02-26T09:40:26;0.52;;;0.38;;
55082;SDS011;40978;52.850;6.506;2024-02-26T09:42:53;1.25;;;0.93;;
55082;SDS011;40978;52.850;6.506;2024-02-26T09:45:25;4.68;;;0.80;;
55082;SDS011;40978;52.850;6.506;2024-02-26T09:47:53;1.35;;;1.08;;
55082;SDS011;40978;52.850;6.506;2024-02-26T09:50:21;1.73;;;0.60;;
55082;SDS011;40978;52.850;6.506;2024-02-26T09:52:47;0.77;;;0.60;;
55082;SDS011;40978;52.850;6.506;2024-02-26T09:55:14;0.30;;;0.28;;
55082;SDS011;40978;52.850;6.506;2024-02-26T09:57:45;1.73;;;1.17;;
55082;SDS011;40978;52.850;6.506;2024-02-26T10:00:16;1.15;;;0.88;;
55082;SDS011;40978;52.850;6.506;2024-02-26T10:02:45;0.98;;;0.68;;
55082;SDS011;40978;52.850;6.506;2024-02-26T10:05:12;1.08;;;0.88;;
55082;SDS011;40978;52.850;6.506;2024-02-26T10:07:43;0.85;;;0.52;;
55082;SDS011;40978;52.850;6.506;2024-02-26T10:10:09;1.98;;;1.20;;
55082;SDS011;40978;52.850;6.506;2024-02-26T10:12:35;1.42;;;0.90;;
55082;SDS011;40978;52.850;6.506;2024-02-26T10:15:01;1.27;;;0.82;;
55082;SDS011;40978;52.850;6.506;2024-02-26T10:17:26;1.02;;;0.65;;
55082;SDS011;40978;52.850;6.506;2024-02-26T10:19:54;0.85;;;0.77;;
55082;SDS011;40978;52.850;6.506;2024-02-26T10:22:22;5.32;;;1.38;;
55082;SDS011;40978;52.850;6.506;2024-02-26T10:24:48;2.05;;;1.02;;
55082;SDS011;40978;52.850;6.506;2024-02-26T10:27:13;0.80;;;0.63;;
55082;SDS011;40978;52.850;6.506;2024-02-26T10:29:40;0.75;;;0.60;;
55082;SDS011;40978;52.850;6.506;2024-02-26T10:32:08;1.38;;;0.98;;
55082;SDS011;40978;52.850;6.506;2024-02-26T10:34:35;0.82;;;0.50;;
55082;SDS011;40978;52.850;6.506;2024-02-26T10:37:03;2.67;;;0.70;;
55082;SDS011;40978;52.850;6.506;2024-02-26T10:39:29;1.65;;;1.02;;
55082;SDS011;40978;52.850;6.506;2024-02-26T10:41:55;2.45;;;1.05;;
55082;SDS011;40978;52.850;6.506;2024-02-26T10:44:21;1.95;;;1.08;;
55082;SDS011;40978;52.850;6.506;2024-02-26T10:46:47;1.20;;;1.00;;
55082;SDS011;40978;52.850;6.506;2024-02-26T10:49:16;2.38;;;1.67;;
55082;SDS011;40978;52.850;6.506;2024-02-26T10:51:44;2.05;;;1.13;;
55082;SDS011;40978;52.850;6.506;2024-02-26T10:54:14;0.90;;;0.63;;
55082;SDS011;40978;52.850;6.506;2024-02-26T10:56:41;3.22;;;1.45;;
55082;SDS011;40978;52.850;6.506;2024-02-26T10:59:11;1.30;;;1.00;;
55082;SDS011;40978;52.850;6.506;2024-02-26T11:01:37;2.05;;;0.95;;
55082;SDS011;40978;52.850;6.506;2024-02-26T11:04:06;1.38;;;0.93;;
55082;SDS011;40978;52.850;6.506;2024-02-26T11:06:33;1.33;;;0.82;;
55082;SDS011;40978;52.850;6.506;2024-02-26T11:09:00;1.73;;;1.27;;
55082;SDS011;40978;52.850;6.506;2024-02-26T11:11:27;1.35;;;0.73;;
55082;SDS011;40978;52.850;6.506;2024-02-26T11:13:55;1.75;;;1.13;;
55082;SDS011;40978;52.850;6.506;2024-02-26T11:16:21;2.63;;;1.17;;
55082;SDS011;40978;52.850;6.506;2024-02-26T11:18:48;2.42;;;1.50;;
55082;SDS011;40978;52.850;6.506;2024-02-26T11:21:17;2.55;;;1.40;;
55082;SDS011;40978;52.850;6.506;2024-02-26T11:23:47;1.60;;;1.20;;
55082;SDS011;40978;52.850;6.506;2024-02-26T11:26:14;2.28;;;1.67;;
55082;SDS011;40978;52.850;6.506;2024-02-26T11:28:42;2.00;;;0.80;;
55082;SDS011;40978;52.850;6.506;2024-02-26T11:31:09;1.17;;;0.63;;
55082;SDS011;40978;52.850;6.506;2024-02-26T11:33:36;1.00;;;0.80;;
55082;SDS011;40978;52.850;6.506;2024-02-26T11:36:11;0.90;;;0.50;;
55082;SDS011;40978;52.850;6.506;2024-02-26T11:38:37;0.43;;;0.20;;
55082;SDS011;40978;52.850;6.506;2024-02-26T11:41:06;0.52;;;0.25;;
55082;SDS011;40978;52.850;6.506;2024-02-26T11:43:52;1.27;;;0.68;;
55082;SDS011;40978;52.850;6.506;2024-02-26T11:46:26;1.77;;;0.68;;
55082;SDS011;40978;52.850;6.506;2024-02-26T11:48:57;1.45;;;0.80;;
55082;SDS011;40978;52.850;6.506;2024-02-26T11:51:26;0.50;;;0.30;;
55082;SDS011;40978;52.850;6.506;2024-02-26T11:53:53;0.60;;;0.50;;
55082;SDS011;40978;52.850;6.506;2024-02-26T11:56:20;1.40;;;0.73;;
55082;SDS011;40978;52.850;6.506;2024-02-26T11:59:04;0.73;;;0.60;;
55082;SDS011;40978;52.850;6.506;2024-02-26T12:01:38;0.80;;;0.57;;
55082;SDS011;40978;52.850;6.506;2024-02-26T12:04:05;0.82;;;0.50;;
55082;SDS011;40978;52.850;6.506;2024-02-26T12:06:51;1.08;;;0.35;;
55082;SDS011;40978;52.850;6.506;2024-02-26T12:12:02;0.85;;;0.45;;
55082;SDS011;40978;52.850;6.506;2024-02-26T12:14:32;0.43;;;0.10;;
55082;SDS011;40978;52.850;6.506;2024-02-26T12:16:58;0.93;;;0.57;;
55082;SDS011;40978;52.850;6.506;2024-02-26T12:19:25;0.40;;;0.30;;
55082;SDS011;40978;52.850;6.506;2024-02-26T12:21:52;1.25;;;0.50;;
55082;SDS011;40978;52.850;6.506;2024-02-26T12:24:20;2.15;;;1.15;;
55082;SDS011;40978;52.850;6.506;2024-02-26T12:26:46;0.35;;;0.20;;
55082;SDS011;40978;52.850;6.506;2024-02-26T12:29:12;3.22;;;0.68;;
55082;SDS011;40978;52.850;6.506;2024-02-26T12:31:39;1.52;;;1.05;;
55082;SDS011;40978;52.850;6.506;2024-02-26T12:34:06;0.80;;;0.57;;
55082;SDS011;40978;52.850;6.506;2024-02-26T12:36:33;4.43;;;0.65;;
55082;SDS011;40978;52.850;6.506;2024-02-26T12:39:00;1.35;;;0.95;;
55082;SDS011;40978;52.850;6.506;2024-02-26T12:41:27;4.85;;;0.65;;
55082;SDS011;40978;52.850;6.506;2024-02-26T12:43:55;1.73;;;0.70;;
55082;SDS011;40978;52.850;6.506;2024-02-26T12:46:23;1.13;;;0.65;;
55082;SDS011;40978;52.850;6.506;2024-02-26T12:48:49;1.25;;;0.38;;
55082;SDS011;40978;52.850;6.506;2024-02-26T12:51:15;1.60;;;1.00;;
55082;SDS011;40978;52.850;6.506;2024-02-26T12:53:43;0.73;;;0.55;;
55082;SDS011;40978;52.850;6.506;2024-02-26T12:56:10;0.40;;;0.40;;
55082;SDS011;40978;52.850;6.506;2024-02-26T12:58:39;0.57;;;0.43;;
55082;SDS011;40978;52.850;6.506;2024-02-26T13:01:06;0.70;;;0.40;;
55082;SDS011;40978;52.850;6.506;2024-02-26T13:03:35;0.93;;;0.63;;
55082;SDS011;40978;52.850;6.506;2024-02-26T13:06:02;0.93;;;0.50;;
55082;SDS011;40978;52.850;6.506;2024-02-26T13:08:29;2.10;;;1.00;;
55082;SDS011;40978;52.850;6.506;2024-02-26T13:10:58;0.95;;;0.60;;
55082;SDS011;40978;52.850;6.506;2024-02-26T13:13:24;2.67;;;1.70;;
55082;SDS011;40978;52.850;6.506;2024-02-26T13:15:50;0.80;;;0.70;;
55082;SDS011;40978;52.850;6.506;2024-02-26T13:18:27;1.48;;;0.88;;
55082;SDS011;40978;52.850;6.506;2024-02-26T13:21:05;0.80;;;0.60;;
55082;SDS011;40978;52.850;6.506;2024-02-26T13:23:34;0.75;;;0.50;;
55082;SDS011;40978;52.850;6.506;2024-02-26T13:26:00;1.27;;;0.52;;
55082;SDS011;40978;52.850;6.506;2024-02-26T13:28:26;2.22;;;1.17;;
55082;SDS011;40978;52.850;6.506;2024-02-26T13:30:57;1.55;;;1.13;;
55082;SDS011;40978;52.850;6.506;2024-02-26T13:33:26;1.98;;;1.08;;
55082;SDS011;40978;52.850;6.506;2024-02-26T13:35:53;1.98;;;1.08;;
55082;SDS011;40978;52.850;6.506;2024-02-26T13:38:20;1.23;;;0.75;;
55082;SDS011;40978;52.850;6.506;2024-02-26T13:40:46;1.58;;;0.77;;
55082;SDS011;40978;52.850;6.506;2024-02-26T13:43:12;0.68;;;0.60;;
55082;SDS011;40978;52.850;6.506;2024-02-26T13:45:38;1.33;;;0.82;;
55082;SDS011;40978;52.850;6.506;2024-02-26T13:48:07;1.83;;;0.85;;
55082;SDS011;40978;52.850;6.506;2024-02-26T13:50:35;1.88;;;1.17;;
55082;SDS011;40978;52.850;6.506;2024-02-26T13:53:01;1.35;;;0.90;;
55082;SDS011;40978;52.850;6.506;2024-02-26T13:55:27;2.17;;;1.08;;
55082;SDS011;40978;52.850;6.506;2024-02-26T13:57:55;1.35;;;0.88;;
55082;SDS011;40978;52.850;6.506;2024-02-26T14:00:26;0.95;;;0.77;;
55082;SDS011;40978;52.850;6.506;2024-02-26T14:02:54;1.17;;;0.70;;
55082;SDS011;40978;52.850;6.506;2024-02-26T14:05:20;0.70;;;0.47;;
55082;SDS011;40978;52.850;6.506;2024-02-26T14:07:46;1.30;;;1.13;;
55082;SDS011;40978;52.850;6.506;2024-02-26T14:10:12;2.45;;;1.70;;
55082;SDS011;40978;52.850;6.506;2024-02-26T14:12:38;2.25;;;1.38;;
55082;SDS011;40978;52.850;6.506;2024-02-26T14:15:05;2.05;;;1.20;;
55082;SDS011;40978;52.850;6.506;2024-02-26T14:17:32;2.65;;;1.70;;
55082;SDS011;40978;52.850;6.506;2024-02-26T14:19:57;2.85;;;1.65;;
55082;SDS011;40978;52.850;6.506;2024-02-26T14:22:24;2.63;;;1.75;;
55082;SDS011;40978;52.850;6.506;2024-02-26T14:24:52;1.63;;;1.40;;
55082;SDS011;40978;52.850;6.506;2024-02-26T14:27:18;1.80;;;1.02;;
55082;SDS011;40978;52.850;6.506;2024-02-26T14:29:47;3.00;;;1.45;;
55082;SDS011;40978;52.850;6.506;2024-02-26T14:32:13;1.58;;;1.13;;
55082;SDS011;40978;52.850;6.506;2024-02-26T14:34:39;2.92;;;1.30;;
55082;SDS011;40978;52.850;6.506;2024-02-26T14:37:05;1.42;;;1.10;;
55082;SDS011;40978;52.850;6.506;2024-02-26T14:39:31;1.60;;;0.88;;
55082;SDS011;40978;52.850;6.506;2024-02-26T14:41:57;1.95;;;1.05;;
55082;SDS011;40978;52.850;6.506;2024-02-26T14:44:23;1.92;;;1.60;;
55082;SDS011;40978;52.850;6.506;2024-02-26T14:46:49;2.50;;;1.63;;